• Join FlightAware (Why Join?)
  • Login
  • US Flag 
10:56PM EDT


 

Airport Tracker/Info


-or-


 

Live Flight TrackerFlight Track Log ✈ N10UH ✈ 08-May-2013 ✈ KEUF - KBHM

Flight Track Log - Related Links

Times and Time Zones

All times are in EDT time to prevent confusion due to time zone crossing. See the N10UH flight status page for this flight to view local times or setup timezone preferences in your user account.

Time Position Orientation Groundspeed Altitude Reporting Facility
EDT Latitude Longitude Course Direction KTS MPH feet Rate Location/Type
05:16AM 32.0833 -85.2203 324° Northwest 293 337 7,900  Level Atlanta Center
05:17AM 32.1308 -85.2725 317° Northwest 254 292 10,700 2,700 Climbing Atlanta Center
05:18AM 32.1803 -85.3197 321° Northwest 233 268 13,300 1,620 Climbing Atlanta Center
05:19AM 32.2361 -85.3722 322° Northwest 239 275 14,000 300 Climbing Atlanta Center
05:20AM 32.2981 -85.4394 317° Northwest 275 316 14,000  Level Atlanta Center
05:21AM 32.3325 -85.5054 324° Northwest  Level FlightAware Approximate
05:21AM 32.3683 -85.5069 321° Northwest 305 351 14,000  Level Atlanta Center
05:22AM 32.4300 -85.5744 317° Northwest 310 357 14,000  Level Atlanta Center
05:23AM 32.4939 -85.6397 319° Northwest 310 357 14,000  Level Atlanta Center
05:24AM 32.5619 -85.7072 320° Northwest 310 357 14,000  Level Atlanta Center
05:25AM 32.6278 -85.7728 320° Northwest 310 357 14,000  Level Atlanta Center
05:26AM 32.6917 -85.8406 318° Northwest 310 357 14,000  Level Atlanta Center
05:27AM 32.7553 -85.9061 319° Northwest 310 357 14,000  Level Atlanta Center
05:28AM 32.8189 -85.9717 319° Northwest 305 351 14,000  Level Atlanta Center
05:29AM 32.8867 -86.0400 320° Northwest 305 351 14,000  Level Atlanta Center
05:30AM 32.9503 -86.1083 318° Northwest 305 351 14,000  Level Atlanta Center
05:31AM 33.0139 -86.1767 318° Northwest 305 351 14,000  Level Atlanta Center
05:32AM 33.0775 -86.2428 319° Northwest 305 351 14,000 -120 Level Atlanta Center
05:33AM 33.1325 -86.3161 312° West 305 351 13,800 -1,140 Descending Atlanta Center
05:34AM 33.1894 -86.3919 312° West 305 351 11,800 -2,040 Descending Atlanta Center
05:35AM 33.2444 -86.4581 315° West 299 344 9,800 -2,040 Descending Atlanta Center
05:36AM 33.2975 -86.5242 314° West 287 330 7,800 -2,100 Descending Atlanta Center
05:36AM 33.3075 -86.5442 301° West 266 306 7,200 -1,800 Descending Atlanta Center
05:37AM 33.3422 -86.5825 317° Northwest 281 323 6,000 -1,920 Descending Atlanta Center
05:37AM 33.3625 -86.6131 308° West 259 298 5,100 -1,860 Descending Atlanta Center
05:38AM 33.4072 -86.6617 318° Northwest 239 275 3,700 -1,380 Descending Atlanta Center
05:39AM 33.4586 -86.7056 325° Northwest 214 246 2,500 -840 Descending Atlanta Center
05:40AM 33.4997 -86.7342 330° Northwest 157 181 2,100 -720 Descending Atlanta Center
05:41AM 33.5306 -86.7500 337° Northwest 116 133 1,100 -1,020 Descending Atlanta Center
05:43AM 33.5500 -86.7500 309° West  Level FlightAware Approximate
05:50AM 33.5639 -86.7523 309° West  Level Estimated